sensor_id;sensor_type;location;lat;lon;timestamp;temperature;humidity
30678;DHT22;17437;47.188;8.896;2023-05-10T00:01:50;13.80;99.90
30678;DHT22;17437;47.188;8.896;2023-05-10T00:04:22;13.80;99.90
30678;DHT22;17437;47.188;8.896;2023-05-10T00:06:55;13.70;99.90
30678;DHT22;17437;47.188;8.896;2023-05-10T00:09:26;13.70;99.90
30678;DHT22;17437;47.188;8.896;2023-05-10T00:11:58;13.50;99.90
30678;DHT22;17437;47.188;8.896;2023-05-10T00:14:29;13.50;99.90
30678;DHT22;17437;47.188;8.896;2023-05-10T00:17:01;13.40;99.90
30678;DHT22;17437;47.188;8.896;2023-05-10T00:19:32;13.40;99.90
30678;DHT22;17437;47.188;8.896;2023-05-10T00:22:04;13.40;99.90
30678;DHT22;17437;47.188;8.896;2023-05-10T00:24:35;13.30;99.90
30678;DHT22;17437;47.188;8.896;2023-05-10T00:27:07;13.20;99.90
30678;DHT22;17437;47.188;8.896;2023-05-10T00:29:38;13.10;99.90
30678;DHT22;17437;47.188;8.896;2023-05-10T00:32:10;13.00;99.90
30678;DHT22;17437;47.188;8.896;2023-05-10T00:34:41;12.90;99.90
30678;DHT22;17437;47.188;8.896;2023-05-10T00:37:13;12.90;99.90
30678;DHT22;17437;47.188;8.896;2023-05-10T00:39:45;12.90;99.90
30678;DHT22;17437;47.188;8.896;2023-05-10T00:42:17;12.80;99.90
30678;DHT22;17437;47.188;8.896;2023-05-10T00:44:48;12.80;99.90
30678;DHT22;17437;47.188;8.896;2023-05-10T00:47:20;12.80;99.90
30678;DHT22;17437;47.188;8.896;2023-05-10T00:49:52;12.70;99.90
30678;DHT22;17437;47.188;8.896;2023-05-10T00:52:24;12.70;99.90
30678;DHT22;17437;47.188;8.896;2023-05-10T00:54:56;12.70;99.90
30678;DHT22;17437;47.188;8.896;2023-05-10T00:57:27;12.70;99.90
30678;DHT22;17437;47.188;8.896;2023-05-10T01:00:00;12.70;99.90
30678;DHT22;17437;47.188;8.896;2023-05-10T01:02:35;12.60;99.90
30678;DHT22;17437;47.188;8.896;2023-05-10T01:05:07;12.70;99.90
30678;DHT22;17437;47.188;8.896;2023-05-10T01:07:39;12.70;99.90
30678;DHT22;17437;47.188;8.896;2023-05-10T01:10:11;12.60;99.90
30678;DHT22;17437;47.188;8.896;2023-05-10T01:12:45;12.60;99.90
30678;DHT22;17437;47.188;8.896;2023-05-10T01:15:19;12.60;99.90
30678;DHT22;17437;47.188;8.896;2023-05-10T01:17:52;12.60;99.90
30678;DHT22;17437;47.188;8.896;2023-05-10T01:20:25;12.60;99.90
30678;DHT22;17437;47.188;8.896;2023-05-10T01:29:20;12.60;99.90
30678;DHT22;17437;47.188;8.896;2023-05-10T01:32:14;12.70;99.90
30678;DHT22;17437;47.188;8.896;2023-05-10T01:34:53;12.60;99.90
30678;DHT22;17437;47.188;8.896;2023-05-10T01:37:36;12.70;99.90
30678;DHT22;17437;47.188;8.896;2023-05-10T01:40:14;12.70;99.90
30678;DHT22;17437;47.188;8.896;2023-05-10T01:42:51;12.70;99.90
30678;DHT22;17437;47.188;8.896;2023-05-10T01:45:29;12.70;99.90
30678;DHT22;17437;47.188;8.896;2023-05-10T01:48:05;12.70;99.90
30678;DHT22;17437;47.188;8.896;2023-05-10T01:50:40;12.80;99.90
30678;DHT22;17437;47.188;8.896;2023-05-10T01:53:13;12.80;99.90
30678;DHT22;17437;47.188;8.896;2023-05-10T01:55:48;12.80;99.90
30678;DHT22;17437;47.188;8.896;2023-05-10T01:58:22;12.80;99.90
30678;DHT22;17437;47.188;8.896;2023-05-10T02:00:55;12.80;99.90
30678;DHT22;17437;47.188;8.896;2023-05-10T02:03:28;12.70;99.90
30678;DHT22;17437;47.188;8.896;2023-05-10T02:06:00;12.80;99.90
30678;DHT22;17437;47.188;8.896;2023-05-10T02:08:34;12.70;99.90
30678;DHT22;17437;47.188;8.896;2023-05-10T02:11:06;12.80;99.90
30678;DHT22;17437;47.188;8.896;2023-05-10T02:13:39;12.80;99.90
30678;DHT22;17437;47.188;8.896;2023-05-10T02:16:14;12.70;99.90
30678;DHT22;17437;47.188;8.896;2023-05-10T02:18:48;12.70;99.90
30678;DHT22;17437;47.188;8.896;2023-05-10T02:21:21;12.70;99.90
30678;DHT22;17437;47.188;8.896;2023-05-10T02:23:54;12.70;99.90
30678;DHT22;17437;47.188;8.896;2023-05-10T02:26:27;12.70;99.90
30678;DHT22;17437;47.188;8.896;2023-05-10T02:28:59;12.60;99.90
30678;DHT22;17437;47.188;8.896;2023-05-10T02:31:34;12.60;99.90
30678;DHT22;17437;47.188;8.896;2023-05-10T02:34:07;12.60;99.90
30678;DHT22;17437;47.188;8.896;2023-05-10T02:36:40;12.60;99.90
30678;DHT22;17437;47.188;8.896;2023-05-10T02:39:13;12.60;99.90
30678;DHT22;17437;47.188;8.896;2023-05-10T02:41:46;12.60;99.90
30678;DHT22;17437;47.188;8.896;2023-05-10T02:44:19;12.60;99.90
30678;DHT22;17437;47.188;8.896;2023-05-10T02:46:51;12.60;99.90
30678;DHT22;17437;47.188;8.896;2023-05-10T02:49:25;12.60;99.90
30678;DHT22;17437;47.188;8.896;2023-05-10T02:51:59;12.50;99.90
30678;DHT22;17437;47.188;8.896;2023-05-10T02:54:36;12.50;99.90
30678;DHT22;17437;47.188;8.896;2023-05-10T02:57:08;12.40;99.90
30678;DHT22;17437;47.188;8.896;2023-05-10T02:59:41;12.40;99.90
30678;DHT22;17437;47.188;8.896;2023-05-10T03:02:15;12.50;99.90
30678;DHT22;17437;47.188;8.896;2023-05-10T03:04:47;12.40;99.90
30678;DHT22;17437;47.188;8.896;2023-05-10T03:07:19;12.50;99.90
30678;DHT22;17437;47.188;8.896;2023-05-10T03:09:51;12.50;99.90
30678;DHT22;17437;47.188;8.896;2023-05-10T03:12:27;12.40;99.90
30678;DHT22;17437;47.188;8.896;2023-05-10T03:15:03;12.40;99.90
30678;DHT22;17437;47.188;8.896;2023-05-10T03:17:39;12.30;99.90
30678;DHT22;17437;47.188;8.896;2023-05-10T03:20:12;12.30;99.90
30678;DHT22;17437;47.188;8.896;2023-05-10T03:22:47;12.30;99.90
30678;DHT22;17437;47.188;8.896;2023-05-10T03:25:19;12.30;99.90
30678;DHT22;17437;47.188;8.896;2023-05-10T03:27:53;12.30;99.90
30678;DHT22;17437;47.188;8.896;2023-05-10T03:30:25;12.30;99.90
30678;DHT22;17437;47.188;8.896;2023-05-10T03:32:57;12.30;99.90
30678;DHT22;17437;47.188;8.896;2023-05-10T03:35:29;12.20;99.90
30678;DHT22;17437;47.188;8.896;2023-05-10T03:38:00;12.20;99.90
30678;DHT22;17437;47.188;8.896;2023-05-10T03:40:32;12.30;99.90
30678;DHT22;17437;47.188;8.896;2023-05-10T03:43:03;12.30;99.90
30678;DHT22;17437;47.188;8.896;2023-05-10T03:45:35;12.30;99.90
30678;DHT22;17437;47.188;8.896;2023-05-10T03:48:07;12.40;99.90
30678;DHT22;17437;47.188;8.896;2023-05-10T03:50:38;12.30;99.90
30678;DHT22;17437;47.188;8.896;2023-05-10T03:53:10;12.30;99.90
30678;DHT22;17437;47.188;8.896;2023-05-10T03:55:42;12.30;99.90
30678;DHT22;17437;47.188;8.896;2023-05-10T03:58:13;12.20;99.90
30678;DHT22;17437;47.188;8.896;2023-05-10T04:00:45;12.20;99.90
30678;DHT22;17437;47.188;8.896;2023-05-10T04:03:17;12.20;99.90
30678;DHT22;17437;47.188;8.896;2023-05-10T04:05:49;12.20;99.90
30678;DHT22;17437;47.188;8.896;2023-05-10T04:08:20;12.20;99.90
30678;DHT22;17437;47.188;8.896;2023-05-10T04:10:51;12.20;99.90
30678;DHT22;17437;47.188;8.896;2023-05-10T04:13:24;12.20;99.90
30678;DHT22;17437;47.188;8.896;2023-05-10T04:15:55;12.30;99.90
30678;DHT22;17437;47.188;8.896;2023-05-10T04:18:26;12.20;99.90
30678;DHT22;17437;47.188;8.896;2023-05-10T04:20:58;12.20;99.90
30678;DHT22;17437;47.188;8.896;2023-05-10T04:23:30;12.30;99.90
30678;DHT22;17437;47.188;8.896;2023-05-10T04:26:02;12.30;99.90
30678;DHT22;17437;47.188;8.896;2023-05-10T04:28:34;12.20;99.90
30678;DHT22;17437;47.188;8.896;2023-05-10T04:31:06;12.30;99.90
30678;DHT22;17437;47.188;8.896;2023-05-10T04:33:38;12.30;99.90
30678;DHT22;17437;47.188;8.896;2023-05-10T04:36:10;12.30;99.90
30678;DHT22;17437;47.188;8.896;2023-05-10T04:38:42;12.30;99.90
30678;DHT22;17437;47.188;8.896;2023-05-10T04:41:14;12.30;99.90
30678;DHT22;17437;47.188;8.896;2023-05-10T04:43:46;12.40;99.90
30678;DHT22;17437;47.188;8.896;2023-05-10T04:46:19;12.30;99.90
30678;DHT22;17437;47.188;8.896;2023-05-10T04:48:50;12.30;99.90
30678;DHT22;17437;47.188;8.896;2023-05-10T04:51:22;12.40;99.90
30678;DHT22;17437;47.188;8.896;2023-05-10T04:53:53;12.40;99.90
30678;DHT22;17437;47.188;8.896;2023-05-10T04:56:26;12.40;99.90
30678;DHT22;17437;47.188;8.896;2023-05-10T04:58:58;12.40;99.90
30678;DHT22;17437;47.188;8.896;2023-05-10T05:01:29;12.40;99.90
30678;DHT22;17437;47.188;8.896;2023-05-10T05:04:01;12.40;99.90
30678;DHT22;17437;47.188;8.896;2023-05-10T05:06:32;12.40;99.90
30678;DHT22;17437;47.188;8.896;2023-05-10T05:09:04;12.40;99.90
30678;DHT22;17437;47.188;8.896;2023-05-10T05:11:35;12.30;99.90
30678;DHT22;17437;47.188;8.896;2023-05-10T05:14:07;12.40;99.90
30678;DHT22;17437;47.188;8.896;2023-05-10T05:16:38;12.40;99.90
30678;DHT22;17437;47.188;8.896;2023-05-10T05:19:10;12.20;99.90
30678;DHT22;17437;47.188;8.896;2023-05-10T05:21:42;12.10;99.90
30678;DHT22;17437;47.188;8.896;2023-05-10T05:24:14;12.00;99.90
30678;DHT22;17437;47.188;8.896;2023-05-10T05:26:48;11.90;99.90
30678;DHT22;17437;47.188;8.896;2023-05-10T05:29:20;11.80;99.90
30678;DHT22;17437;47.188;8.896;2023-05-10T05:31:52;11.70;99.90
30678;DHT22;17437;47.188;8.896;2023-05-10T05:34:25;11.60;99.90
30678;DHT22;17437;47.188;8.896;2023-05-10T05:36:57;11.60;99.90
30678;DHT22;17437;47.188;8.896;2023-05-10T05:39:29;11.60;99.90
30678;DHT22;17437;47.188;8.896;2023-05-10T05:42:02;11.70;99.90
30678;DHT22;17437;47.188;8.896;2023-05-10T05:44:34;11.60;99.90
30678;DHT22;17437;47.188;8.896;2023-05-10T05:47:06;11.60;99.90
30678;DHT22;17437;47.188;8.896;2023-05-10T05:49:37;11.60;99.90
30678;DHT22;17437;47.188;8.896;2023-05-10T05:52:09;11.60;99.90
30678;DHT22;17437;47.188;8.896;2023-05-10T05:54:41;11.50;99.90
30678;DHT22;17437;47.188;8.896;2023-05-10T05:57:12;11.50;99.90
30678;DHT22;17437;47.188;8.896;2023-05-10T05:59:44;11.50;99.90
30678;DHT22;17437;47.188;8.896;2023-05-10T06:02:16;11.40;99.90
30678;DHT22;17437;47.188;8.896;2023-05-10T06:04:48;11.40;99.90
30678;DHT22;17437;47.188;8.896;2023-05-10T06:07:20;11.40;99.90
30678;DHT22;17437;47.188;8.896;2023-05-10T06:09:51;11.50;99.90
30678;DHT22;17437;47.188;8.896;2023-05-10T06:12:23;11.50;99.90
30678;DHT22;17437;47.188;8.896;2023-05-10T06:14:55;11.40;99.90
30678;DHT22;17437;47.188;8.896;2023-05-10T06:17:26;11.30;99.90
30678;DHT22;17437;47.188;8.896;2023-05-10T06:19:59;11.30;99.90
30678;DHT22;17437;47.188;8.896;2023-05-10T06:22:30;11.30;99.90
30678;DHT22;17437;47.188;8.896;2023-05-10T06:25:02;11.30;99.90
30678;DHT22;17437;47.188;8.896;2023-05-10T06:27:33;11.30;99.90
30678;DHT22;17437;47.188;8.896;2023-05-10T06:30:07;11.30;99.90
30678;DHT22;17437;47.188;8.896;2023-05-10T06:32:44;11.40;99.90
30678;DHT22;17437;47.188;8.896;2023-05-10T06:35:17;11.40;99.90
30678;DHT22;17437;47.188;8.896;2023-05-10T06:37:49;11.40;99.90
30678;DHT22;17437;47.188;8.896;2023-05-10T06:40:20;11.40;99.90
30678;DHT22;17437;47.188;8.896;2023-05-10T06:42:52;11.30;99.90
30678;DHT22;17437;47.188;8.896;2023-05-10T06:45:24;11.20;99.90
30678;DHT22;17437;47.188;8.896;2023-05-10T06:47:56;11.10;99.90
30678;DHT22;17437;47.188;8.896;2023-05-10T06:50:27;11.10;99.90
30678;DHT22;17437;47.188;8.896;2023-05-10T06:52:59;11.10;99.90
30678;DHT22;17437;47.188;8.896;2023-05-10T06:55:32;11.20;99.90
30678;DHT22;17437;47.188;8.896;2023-05-10T06:58:04;11.20;99.90
30678;DHT22;17437;47.188;8.896;2023-05-10T07:00:36;11.20;99.90
30678;DHT22;17437;47.188;8.896;2023-05-10T07:03:10;11.20;99.90
30678;DHT22;17437;47.188;8.896;2023-05-10T07:05:41;11.30;99.90
30678;DHT22;17437;47.188;8.896;2023-05-10T07:08:13;11.30;99.90
30678;DHT22;17437;47.188;8.896;2023-05-10T07:10:44;11.50;99.90
30678;DHT22;17437;47.188;8.896;2023-05-10T07:13:16;11.40;99.90
30678;DHT22;17437;47.188;8.896;2023-05-10T07:15:48;11.50;99.90
30678;DHT22;17437;47.188;8.896;2023-05-10T07:18:20;11.50;99.90
30678;DHT22;17437;47.188;8.896;2023-05-10T07:20:51;11.50;99.90
30678;DHT22;17437;47.188;8.896;2023-05-10T07:23:23;11.50;99.90
30678;DHT22;17437;47.188;8.896;2023-05-10T07:25:55;11.50;99.90
30678;DHT22;17437;47.188;8.896;2023-05-10T07:28:27;11.50;99.90
30678;DHT22;17437;47.188;8.896;2023-05-10T07:30:59;11.50;99.90
30678;DHT22;17437;47.188;8.896;2023-05-10T07:33:31;11.50;99.90
30678;DHT22;17437;47.188;8.896;2023-05-10T07:36:03;11.50;99.90
30678;DHT22;17437;47.188;8.896;2023-05-10T07:38:34;11.50;99.90
30678;DHT22;17437;47.188;8.896;2023-05-10T07:41:07;11.50;99.90
30678;DHT22;17437;47.188;8.896;2023-05-10T07:43:39;11.60;99.90
30678;DHT22;17437;47.188;8.896;2023-05-10T07:46:10;11.70;99.90
30678;DHT22;17437;47.188;8.896;2023-05-10T07:48:42;11.90;99.90
30678;DHT22;17437;47.188;8.896;2023-05-10T07:51:13;12.10;99.90
30678;DHT22;17437;47.188;8.896;2023-05-10T07:53:45;12.20;99.90
30678;DHT22;17437;47.188;8.896;2023-05-10T07:56:24;12.20;99.90
30678;DHT22;17437;47.188;8.896;2023-05-10T07:58:57;12.00;99.90
30678;DHT22;17437;47.188;8.896;2023-05-10T08:01:32;12.10;99.90
30678;DHT22;17437;47.188;8.896;2023-05-10T08:04:04;12.20;99.90
30678;DHT22;17437;47.188;8.896;2023-05-10T08:06:36;12.10;99.90
30678;DHT22;17437;47.188;8.896;2023-05-10T08:09:08;12.10;99.90
30678;DHT22;17437;47.188;8.896;2023-05-10T08:11:41;11.90;99.90
30678;DHT22;17437;47.188;8.896;2023-05-10T08:14:12;11.90;99.90
30678;DHT22;17437;47.188;8.896;2023-05-10T08:16:44;12.00;99.90
30678;DHT22;17437;47.188;8.896;2023-05-10T08:19:15;12.20;99.90
30678;DHT22;17437;47.188;8.896;2023-05-10T08:21:49;12.40;99.90
30678;DHT22;17437;47.188;8.896;2023-05-10T08:24:21;12.40;99.90
30678;DHT22;17437;47.188;8.896;2023-05-10T08:26:52;12.50;99.90
30678;DHT22;17437;47.188;8.896;2023-05-10T08:29:24;12.40;99.90
30678;DHT22;17437;47.188;8.896;2023-05-10T08:31:58;12.50;99.90
30678;DHT22;17437;47.188;8.896;2023-05-10T08:34:31;12.50;99.90
30678;DHT22;17437;47.188;8.896;2023-05-10T08:37:03;12.40;99.90
30678;DHT22;17437;47.188;8.896;2023-05-10T08:39:35;12.30;99.90
30678;DHT22;17437;47.188;8.896;2023-05-10T08:42:08;12.10;99.90
30678;DHT22;17437;47.188;8.896;2023-05-10T08:44:41;12.00;99.90
30678;DHT22;17437;47.188;8.896;2023-05-10T08:47:16;11.90;99.90
30678;DHT22;17437;47.188;8.896;2023-05-10T08:49:48;11.80;99.90
30678;DHT22;17437;47.188;8.896;2023-05-10T08:52:22;11.90;99.90
30678;DHT22;17437;47.188;8.896;2023-05-10T08:54:55;11.90;99.90
30678;DHT22;17437;47.188;8.896;2023-05-10T08:57:30;11.90;99.90
30678;DHT22;17437;47.188;8.896;2023-05-10T09:00:10;11.90;99.90
30678;DHT22;17437;47.188;8.896;2023-05-10T09:02:43;11.90;99.90
30678;DHT22;17437;47.188;8.896;2023-05-10T09:05:16;11.90;99.90
30678;DHT22;17437;47.188;8.896;2023-05-10T09:07:48;12.10;99.90
30678;DHT22;17437;47.188;8.896;2023-05-10T09:10:21;12.20;99.90
30678;DHT22;17437;47.188;8.896;2023-05-10T09:12:52;12.30;99.90
30678;DHT22;17437;47.188;8.896;2023-05-10T09:15:26;12.30;99.90
30678;DHT22;17437;47.188;8.896;2023-05-10T09:17:58;12.30;99.90
30678;DHT22;17437;47.188;8.896;2023-05-10T09:20:31;12.30;99.90
30678;DHT22;17437;47.188;8.896;2023-05-10T09:23:03;12.30;99.90
30678;DHT22;17437;47.188;8.896;2023-05-10T09:25:35;12.30;99.90
30678;DHT22;17437;47.188;8.896;2023-05-10T09:28:24;12.10;99.90
30678;DHT22;17437;47.188;8.896;2023-05-10T09:30:56;12.10;99.90
30678;DHT22;17437;47.188;8.896;2023-05-10T09:33:42;12.00;99.90
30678;DHT22;17437;47.188;8.896;2023-05-10T09:36:55;12.00;99.90
30678;DHT22;17437;47.188;8.896;2023-05-10T09:39:34;12.10;99.90
30678;DHT22;17437;47.188;8.896;2023-05-10T09:42:07;12.10;99.90
30678;DHT22;17437;47.188;8.896;2023-05-10T09:44:39;12.20;99.90
30678;DHT22;17437;47.188;8.896;2023-05-10T09:47:17;12.30;99.90
30678;DHT22;17437;47.188;8.896;2023-05-10T09:49:50;12.30;99.90
30678;DHT22;17437;47.188;8.896;2023-05-10T09:52:22;12.50;99.90
30678;DHT22;17437;47.188;8.896;2023-05-10T09:54:54;12.40;99.90
30678;DHT22;17437;47.188;8.896;2023-05-10T09:57:25;12.40;99.90
30678;DHT22;17437;47.188;8.896;2023-05-10T09:59:57;12.30;99.90
30678;DHT22;17437;47.188;8.896;2023-05-10T10:02:30;12.50;99.90
30678;DHT22;17437;47.188;8.896;2023-05-10T10:05:03;12.60;99.90
30678;DHT22;17437;47.188;8.896;2023-05-10T10:07:35;12.80;99.90
30678;DHT22;17437;47.188;8.896;2023-05-10T10:10:09;12.90;99.90
30678;DHT22;17437;47.188;8.896;2023-05-10T10:12:43;12.90;99.90
30678;DHT22;17437;47.188;8.896;2023-05-10T10:15:15;13.00;99.90
30678;DHT22;17437;47.188;8.896;2023-05-10T10:17:47;13.10;99.90
30678;DHT22;17437;47.188;8.896;2023-05-10T10:20:21;13.10;99.90
30678;DHT22;17437;47.188;8.896;2023-05-10T10:22:53;13.20;99.90
30678;DHT22;17437;47.188;8.896;2023-05-10T10:25:26;13.30;99.90
30678;DHT22;17437;47.188;8.896;2023-05-10T10:28:16;13.40;99.90
30678;DHT22;17437;47.188;8.896;2023-05-10T10:30:52;13.30;99.90
30678;DHT22;17437;47.188;8.896;2023-05-10T10:33:44;13.30;99.90
30678;DHT22;17437;47.188;8.896;2023-05-10T10:36:16;13.20;99.90
30678;DHT22;17437;47.188;8.896;2023-05-10T10:39:00;13.10;99.90
30678;DHT22;17437;47.188;8.896;2023-05-10T10:41:35;13.00;99.90
30678;DHT22;17437;47.188;8.896;2023-05-10T10:44:33;12.90;99.90
30678;DHT22;17437;47.188;8.896;2023-05-10T10:47:03;12.80;99.90
30678;DHT22;17437;47.188;8.896;2023-05-10T10:49:48;12.70;99.90
30678;DHT22;17437;47.188;8.896;2023-05-10T10:52:23;12.60;99.90
30678;DHT22;17437;47.188;8.896;2023-05-10T10:55:02;12.50;99.90
30678;DHT22;17437;47.188;8.896;2023-05-10T10:57:43;12.50;99.90
30678;DHT22;17437;47.188;8.896;2023-05-10T11:00:40;12.50;99.90
30678;DHT22;17437;47.188;8.896;2023-05-10T11:03:12;12.60;99.90
30678;DHT22;17437;47.188;8.896;2023-05-10T11:05:46;12.80;99.90
30678;DHT22;17437;47.188;8.896;2023-05-10T11:08:20;12.80;99.90
30678;DHT22;17437;47.188;8.896;2023-05-10T11:11:14;12.70;99.90
30678;DHT22;17437;47.188;8.896;2023-05-10T11:13:46;12.60;99.90
30678;DHT22;17437;47.188;8.896;2023-05-10T11:16:21;12.40;99.90
30678;DHT22;17437;47.188;8.896;2023-05-10T11:19:05;12.30;99.90
30678;DHT22;17437;47.188;8.896;2023-05-10T11:21:46;12.30;99.90
30678;DHT22;17437;47.188;8.896;2023-05-10T11:24:20;12.30;99.90
30678;DHT22;17437;47.188;8.896;2023-05-10T11:26:52;12.20;99.90
30678;DHT22;17437;47.188;8.896;2023-05-10T11:29:26;12.20;99.90
30678;DHT22;17437;47.188;8.896;2023-05-10T11:31:58;12.30;99.90
30678;DHT22;17437;47.188;8.896;2023-05-10T11:34:31;12.30;99.90
30678;DHT22;17437;47.188;8.896;2023-05-10T11:37:04;12.40;99.90
30678;DHT22;17437;47.188;8.896;2023-05-10T11:39:36;12.40;99.90
30678;DHT22;17437;47.188;8.896;2023-05-10T11:42:08;12.30;99.90
30678;DHT22;17437;47.188;8.896;2023-05-10T11:44:41;12.30;99.90
30678;DHT22;17437;47.188;8.896;2023-05-10T11:47:14;12.30;99.90
30678;DHT22;17437;47.188;8.896;2023-05-10T11:49:46;12.20;99.90
30678;DHT22;17437;47.188;8.896;2023-05-10T11:52:19;12.20;99.90
30678;DHT22;17437;47.188;8.896;2023-05-10T11:54:53;12.20;99.90
30678;DHT22;17437;47.188;8.896;2023-05-10T11:57:27;12.00;99.90
30678;DHT22;17437;47.188;8.896;2023-05-10T12:00:00;11.90;99.90
30678;DHT22;17437;47.188;8.896;2023-05-10T12:02:33;11.90;99.90
30678;DHT22;17437;47.188;8.896;2023-05-10T12:05:06;12.10;99.90
30678;DHT22;17437;47.188;8.896;2023-05-10T12:07:38;12.20;99.90
30678;DHT22;17437;47.188;8.896;2023-05-10T12:10:12;12.30;99.90
30678;DHT22;17437;47.188;8.896;2023-05-10T12:12:47;12.30;99.90
30678;DHT22;17437;47.188;8.896;2023-05-10T12:15:21;12.20;99.90
30678;DHT22;17437;47.188;8.896;2023-05-10T12:17:52;12.20;99.90
30678;DHT22;17437;47.188;8.896;2023-05-10T12:20:27;12.30;99.90
30678;DHT22;17437;47.188;8.896;2023-05-10T12:22:59;12.30;99.90
30678;DHT22;17437;47.188;8.896;2023-05-10T12:25:34;12.40;99.90
30678;DHT22;17437;47.188;8.896;2023-05-10T12:28:08;12.40;99.90
30678;DHT22;17437;47.188;8.896;2023-05-10T12:30:40;12.50;99.90
30678;DHT22;17437;47.188;8.896;2023-05-10T12:33:13;12.50;99.90
30678;DHT22;17437;47.188;8.896;2023-05-10T12:35:48;12.50;99.90
30678;DHT22;17437;47.188;8.896;2023-05-10T12:38:31;12.50;99.90
30678;DHT22;17437;47.188;8.896;2023-05-10T12:41:05;12.50;99.90
30678;DHT22;17437;47.188;8.896;2023-05-10T12:43:37;12.60;99.90
30678;DHT22;17437;47.188;8.896;2023-05-10T12:46:10;12.70;99.90
30678;DHT22;17437;47.188;8.896;2023-05-10T12:48:43;12.90;99.90
30678;DHT22;17437;47.188;8.896;2023-05-10T12:51:15;13.10;99.90
30678;DHT22;17437;47.188;8.896;2023-05-10T12:53:48;13.30;99.90
30678;DHT22;17437;47.188;8.896;2023-05-10T12:56:20;13.30;99.90
30678;DHT22;17437;47.188;8.896;2023-05-10T12:58:51;13.20;99.90
30678;DHT22;17437;47.188;8.896;2023-05-10T13:01:23;13.00;99.90
30678;DHT22;17437;47.188;8.896;2023-05-10T13:03:55;12.90;99.90
30678;DHT22;17437;47.188;8.896;2023-05-10T13:06:26;12.80;99.90
30678;DHT22;17437;47.188;8.896;2023-05-10T13:08:59;12.70;99.90
30678;DHT22;17437;47.188;8.896;2023-05-10T13:11:30;12.70;99.90
30678;DHT22;17437;47.188;8.896;2023-05-10T13:14:02;12.60;99.90
30678;DHT22;17437;47.188;8.896;2023-05-10T13:16:34;12.60;99.90
30678;DHT22;17437;47.188;8.896;2023-05-10T13:19:06;12.50;99.90
30678;DHT22;17437;47.188;8.896;2023-05-10T13:21:38;12.50;99.90
30678;DHT22;17437;47.188;8.896;2023-05-10T13:24:11;12.40;99.90
30678;DHT22;17437;47.188;8.896;2023-05-10T13:26:44;12.30;99.90
30678;DHT22;17437;47.188;8.896;2023-05-10T13:29:15;12.30;99.90
30678;DHT22;17437;47.188;8.896;2023-05-10T13:31:48;12.20;99.90
30678;DHT22;17437;47.188;8.896;2023-05-10T13:34:20;12.10;99.90
30678;DHT22;17437;47.188;8.896;2023-05-10T13:36:52;12.10;99.90
30678;DHT22;17437;47.188;8.896;2023-05-10T13:39:26;12.10;99.90
30678;DHT22;17437;47.188;8.896;2023-05-10T13:41:57;12.10;99.90
30678;DHT22;17437;47.188;8.896;2023-05-10T13:44:29;12.10;99.90
30678;DHT22;17437;47.188;8.896;2023-05-10T13:47:00;12.10;99.90
30678;DHT22;17437;47.188;8.896;2023-05-10T13:49:32;12.00;99.90
30678;DHT22;17437;47.188;8.896;2023-05-10T13:52:04;11.90;99.90
30678;DHT22;17437;47.188;8.896;2023-05-10T13:54:37;11.90;99.90
30678;DHT22;17437;47.188;8.896;2023-05-10T13:57:09;11.90;99.90
30678;DHT22;17437;47.188;8.896;2023-05-10T13:59:42;11.90;99.90
30678;DHT22;17437;47.188;8.896;2023-05-10T14:02:13;11.90;99.90
30678;DHT22;17437;47.188;8.896;2023-05-10T14:04:44;11.90;99.90
30678;DHT22;17437;47.188;8.896;2023-05-10T14:07:16;12.00;99.90
30678;DHT22;17437;47.188;8.896;2023-05-10T14:09:48;12.10;99.90
30678;DHT22;17437;47.188;8.896;2023-05-10T14:12:20;12.20;99.90
30678;DHT22;17437;47.188;8.896;2023-05-10T14:14:51;12.30;99.90
30678;DHT22;17437;47.188;8.896;2023-05-10T14:17:23;12.50;99.90
30678;DHT22;17437;47.188;8.896;2023-05-10T14:19:54;12.70;99.90
30678;DHT22;17437;47.188;8.896;2023-05-10T14:22:26;12.90;99.90
30678;DHT22;17437;47.188;8.896;2023-05-10T14:24:57;13.10;99.90
30678;DHT22;17437;47.188;8.896;2023-05-10T14:27:29;13.20;99.90
30678;DHT22;17437;47.188;8.896;2023-05-10T14:30:00;13.20;99.90
30678;DHT22;17437;47.188;8.896;2023-05-10T14:32:32;13.00;99.90
30678;DHT22;17437;47.188;8.896;2023-05-10T14:35:07;13.00;99.90
30678;DHT22;17437;47.188;8.896;2023-05-10T14:37:40;12.90;99.90
30678;DHT22;17437;47.188;8.896;2023-05-10T14:40:13;12.80;99.90
30678;DHT22;17437;47.188;8.896;2023-05-10T14:42:45;12.90;99.90
30678;DHT22;17437;47.188;8.896;2023-05-10T14:45:16;13.00;99.90
30678;DHT22;17437;47.188;8.896;2023-05-10T14:47:48;12.90;99.90
30678;DHT22;17437;47.188;8.896;2023-05-10T14:50:20;12.90;99.90
30678;DHT22;17437;47.188;8.896;2023-05-10T14:52:53;12.90;99.90
30678;DHT22;17437;47.188;8.896;2023-05-10T14:55:24;13.00;99.90
30678;DHT22;17437;47.188;8.896;2023-05-10T14:57:56;13.10;99.90
30678;DHT22;17437;47.188;8.896;2023-05-10T15:00:30;13.30;99.90
30678;DHT22;17437;47.188;8.896;2023-05-10T15:03:03;13.30;99.90
30678;DHT22;17437;47.188;8.896;2023-05-10T15:05:35;13.20;99.90
30678;DHT22;17437;47.188;8.896;2023-05-10T15:08:07;13.30;99.90
30678;DHT22;17437;47.188;8.896;2023-05-10T15:10:39;13.30;99.90
30678;DHT22;17437;47.188;8.896;2023-05-10T15:13:10;13.40;99.90
30678;DHT22;17437;47.188;8.896;2023-05-10T15:15:44;13.60;99.90
30678;DHT22;17437;47.188;8.896;2023-05-10T15:18:16;13.60;99.90
30678;DHT22;17437;47.188;8.896;2023-05-10T15:20:48;13.70;99.90
30678;DHT22;17437;47.188;8.896;2023-05-10T15:23:19;13.80;99.90
30678;DHT22;17437;47.188;8.896;2023-05-10T15:25:51;13.90;99.90
30678;DHT22;17437;47.188;8.896;2023-05-10T15:28:24;14.00;99.90
30678;DHT22;17437;47.188;8.896;2023-05-10T15:30:55;14.10;99.90
30678;DHT22;17437;47.188;8.896;2023-05-10T15:33:27;14.20;99.90
30678;DHT22;17437;47.188;8.896;2023-05-10T15:35:58;14.20;99.90
30678;DHT22;17437;47.188;8.896;2023-05-10T15:38:30;14.10;99.90
30678;DHT22;17437;47.188;8.896;2023-05-10T15:41:01;14.20;99.90
30678;DHT22;17437;47.188;8.896;2023-05-10T15:43:33;14.20;99.90
30678;DHT22;17437;47.188;8.896;2023-05-10T15:46:04;14.10;99.90
30678;DHT22;17437;47.188;8.896;2023-05-10T15:48:37;14.10;99.90
30678;DHT22;17437;47.188;8.896;2023-05-10T15:51:09;14.10;99.90
30678;DHT22;17437;47.188;8.896;2023-05-10T15:53:40;14.00;99.90
30678;DHT22;17437;47.188;8.896;2023-05-10T15:56:14;13.90;99.90
30678;DHT22;17437;47.188;8.896;2023-05-10T15:58:46;13.90;99.90
30678;DHT22;17437;47.188;8.896;2023-05-10T16:01:17;13.90;99.90
30678;DHT22;17437;47.188;8.896;2023-05-10T16:03:49;13.90;99.90
30678;DHT22;17437;47.188;8.896;2023-05-10T16:06:20;13.90;99.90
30678;DHT22;17437;47.188;8.896;2023-05-10T16:08:52;13.80;99.90
30678;DHT22;17437;47.188;8.896;2023-05-10T16:11:24;13.80;99.90
30678;DHT22;17437;47.188;8.896;2023-05-10T16:13:55;13.70;99.90